sensor_id;sensor_type;location;lat;lon;timestamp;P1;durP1;ratioP1;P2;durP2;ratioP2
33066;SDS011;19428;49.024;8.366;2022-07-29T00:00:35;10.50;;;10.20;;
33066;SDS011;19428;49.024;8.366;2022-07-29T00:03:01;10.32;;;10.02;;
33066;SDS011;19428;49.024;8.366;2022-07-29T00:05:27;11.35;;;11.02;;
33066;SDS011;19428;49.024;8.366;2022-07-29T00:07:53;12.82;;;12.13;;
33066;SDS011;19428;49.024;8.366;2022-07-29T00:10:19;11.82;;;11.45;;
33066;SDS011;19428;49.024;8.366;2022-07-29T00:12:44;12.50;;;12.13;;
33066;SDS011;19428;49.024;8.366;2022-07-29T00:15:10;12.23;;;11.85;;
33066;SDS011;19428;49.024;8.366;2022-07-29T00:17:35;12.07;;;11.70;;
33066;SDS011;19428;49.024;8.366;2022-07-29T00:20:01;12.20;;;11.82;;
33066;SDS011;19428;49.024;8.366;2022-07-29T00:22:27;11.40;;;11.07;;
33066;SDS011;19428;49.024;8.366;2022-07-29T00:24:52;11.30;;;10.95;;
33066;SDS011;19428;49.024;8.366;2022-07-29T00:27:18;10.82;;;10.52;;
33066;SDS011;19428;49.024;8.366;2022-07-29T00:29:44;10.07;;;9.77;;
33066;SDS011;19428;49.024;8.366;2022-07-29T00:32:09;9.32;;;9.05;;
33066;SDS011;19428;49.024;8.366;2022-07-29T00:34:35;10.63;;;10.32;;
33066;SDS011;19428;49.024;8.366;2022-07-29T00:37:27;9.93;;;9.63;;
33066;SDS011;19428;49.024;8.366;2022-07-29T00:39:52;9.27;;;9.02;;
33066;SDS011;19428;49.024;8.366;2022-07-29T00:42:18;9.20;;;8.93;;
33066;SDS011;19428;49.024;8.366;2022-07-29T00:44:43;9.10;;;8.88;;
33066;SDS011;19428;49.024;8.366;2022-07-29T00:47:10;10.00;;;9.70;;
33066;SDS011;19428;49.024;8.366;2022-07-29T00:49:36;11.25;;;10.93;;
33066;SDS011;19428;49.024;8.366;2022-07-29T00:52:04;13.70;;;13.27;;
33066;SDS011;19428;49.024;8.366;2022-07-29T00:54:31;14.90;;;14.43;;
33066;SDS011;19428;49.024;8.366;2022-07-29T00:56:57;17.25;;;16.63;;
33066;SDS011;19428;49.024;8.366;2022-07-29T00:59:24;16.35;;;15.80;;
33066;SDS011;19428;49.024;8.366;2022-07-29T01:01:51;17.73;;;17.13;;
33066;SDS011;19428;49.024;8.366;2022-07-29T01:04:17;18.55;;;17.90;;
33066;SDS011;19428;49.024;8.366;2022-07-29T01:06:43;18.23;;;17.60;;
33066;SDS011;19428;49.024;8.366;2022-07-29T01:09:09;17.05;;;16.48;;
33066;SDS011;19428;49.024;8.366;2022-07-29T01:11:35;18.08;;;17.45;;
33066;SDS011;19428;49.024;8.366;2022-07-29T01:14:01;18.30;;;17.67;;
33066;SDS011;19428;49.024;8.366;2022-07-29T01:16:30;18.85;;;18.20;;
33066;SDS011;19428;49.024;8.366;2022-07-29T01:19:00;19.55;;;18.85;;
33066;SDS011;19428;49.024;8.366;2022-07-29T01:21:44;17.92;;;17.33;;
33066;SDS011;19428;49.024;8.366;2022-07-29T01:24:28;19.83;;;19.15;;
33066;SDS011;19428;49.024;8.366;2022-07-29T01:27:10;19.55;;;18.88;;
33066;SDS011;19428;49.024;8.366;2022-07-29T01:30:04;22.70;;;21.88;;
33066;SDS011;19428;49.024;8.366;2022-07-29T01:32:31;25.27;;;24.35;;
33066;SDS011;19428;49.024;8.366;2022-07-29T01:37:57;28.20;;;27.15;;
33066;SDS011;19428;49.024;8.366;2022-07-29T01:43:17;28.23;;;27.17;;
33066;SDS011;19428;49.024;8.366;2022-07-29T01:45:46;30.13;;;29.00;;
33066;SDS011;19428;49.024;8.366;2022-07-29T01:48:23;27.77;;;26.75;;
33066;SDS011;19428;49.024;8.366;2022-07-29T01:51:12;28.38;;;27.33;;
33066;SDS011;19428;49.024;8.366;2022-07-29T01:53:59;27.50;;;26.42;;
33066;SDS011;19428;49.024;8.366;2022-07-29T01:56:26;28.17;;;27.15;;
33066;SDS011;19428;49.024;8.366;2022-07-29T01:58:55;27.90;;;26.80;;
33066;SDS011;19428;49.024;8.366;2022-07-29T02:01:23;28.00;;;27.00;;
33066;SDS011;19428;49.024;8.366;2022-07-29T02:03:50;28.35;;;27.33;;
33066;SDS011;19428;49.024;8.366;2022-07-29T02:06:20;28.15;;;27.15;;
33066;SDS011;19428;49.024;8.366;2022-07-29T02:08:47;29.00;;;27.90;;
33066;SDS011;19428;49.024;8.366;2022-07-29T02:11:14;31.90;;;30.50;;
33066;SDS011;19428;49.024;8.366;2022-07-29T02:13:42;29.00;;;27.90;;
33066;SDS011;19428;49.024;8.366;2022-07-29T02:16:09;32.20;;;31.00;;
33066;SDS011;19428;49.024;8.366;2022-07-29T02:18:35;31.23;;;30.02;;
33066;SDS011;19428;49.024;8.366;2022-07-29T02:21:04;31.52;;;30.33;;
33066;SDS011;19428;49.024;8.366;2022-07-29T02:23:30;33.38;;;32.10;;
33066;SDS011;19428;49.024;8.366;2022-07-29T02:25:57;30.30;;;29.15;;
33066;SDS011;19428;49.024;8.366;2022-07-29T02:28:25;29.67;;;28.58;;
33066;SDS011;19428;49.024;8.366;2022-07-29T02:30:53;27.55;;;26.55;;
33066;SDS011;19428;49.024;8.366;2022-07-29T02:33:24;27.10;;;26.10;;
33066;SDS011;19428;49.024;8.366;2022-07-29T02:35:51;25.45;;;24.52;;
33066;SDS011;19428;49.024;8.366;2022-07-29T02:38:18;26.98;;;25.95;;
33066;SDS011;19428;49.024;8.366;2022-07-29T02:44:03;25.38;;;24.45;;
33066;SDS011;19428;49.024;8.366;2022-07-29T02:46:34;28.95;;;27.88;;
33066;SDS011;19428;49.024;8.366;2022-07-29T02:49:21;31.33;;;30.15;;
33066;SDS011;19428;49.024;8.366;2022-07-29T02:57:28;27.08;;;26.10;;
33066;SDS011;19428;49.024;8.366;2022-07-29T03:00:05;29.25;;;28.15;;
33066;SDS011;19428;49.024;8.366;2022-07-29T03:02:33;31.30;;;30.10;;
33066;SDS011;19428;49.024;8.366;2022-07-29T03:05:02;30.30;;;29.17;;
33066;SDS011;19428;49.024;8.366;2022-07-29T03:07:29;30.02;;;28.92;;
33066;SDS011;19428;49.024;8.366;2022-07-29T03:09:55;30.50;;;29.35;;
33066;SDS011;19428;49.024;8.366;2022-07-29T03:12:22;29.33;;;28.23;;
33066;SDS011;19428;49.024;8.366;2022-07-29T03:14:48;26.77;;;25.77;;
33066;SDS011;19428;49.024;8.366;2022-07-29T03:17:14;28.23;;;27.13;;
33066;SDS011;19428;49.024;8.366;2022-07-29T03:19:41;26.08;;;25.10;;
33066;SDS011;19428;49.024;8.366;2022-07-29T03:22:07;25.05;;;24.15;;
33066;SDS011;19428;49.024;8.366;2022-07-29T03:24:34;26.60;;;25.60;;
33066;SDS011;19428;49.024;8.366;2022-07-29T03:27:01;28.17;;;27.08;;
33066;SDS011;19428;49.024;8.366;2022-07-29T03:29:28;27.38;;;26.38;;
33066;SDS011;19428;49.024;8.366;2022-07-29T03:31:54;30.23;;;29.13;;
33066;SDS011;19428;49.024;8.366;2022-07-29T03:34:20;30.48;;;29.33;;
33066;SDS011;19428;49.024;8.366;2022-07-29T03:36:46;34.33;;;33.03;;
33066;SDS011;19428;49.024;8.366;2022-07-29T03:39:12;32.28;;;31.08;;
33066;SDS011;19428;49.024;8.366;2022-07-29T03:41:41;32.58;;;31.38;;
33066;SDS011;19428;49.024;8.366;2022-07-29T03:44:09;31.10;;;29.90;;
33066;SDS011;19428;49.024;8.366;2022-07-29T03:46:36;27.73;;;26.73;;
33066;SDS011;19428;49.024;8.366;2022-07-29T03:49:04;29.92;;;28.80;;
33066;SDS011;19428;49.024;8.366;2022-07-29T03:51:33;29.80;;;28.67;;
33066;SDS011;19428;49.024;8.366;2022-07-29T03:54:00;26.48;;;25.48;;
33066;SDS011;19428;49.024;8.366;2022-07-29T03:56:27;30.85;;;29.65;;
33066;SDS011;19428;49.024;8.366;2022-07-29T03:58:53;31.27;;;30.08;;
33066;SDS011;19428;49.024;8.366;2022-07-29T04:01:20;31.15;;;29.95;;
33066;SDS011;19428;49.024;8.366;2022-07-29T04:03:47;30.20;;;29.10;;
33066;SDS011;19428;49.024;8.366;2022-07-29T04:06:13;29.92;;;28.83;;
33066;SDS011;19428;49.024;8.366;2022-07-29T04:08:39;29.25;;;28.15;;
33066;SDS011;19428;49.024;8.366;2022-07-29T04:11:04;32.90;;;31.65;;
33066;SDS011;19428;49.024;8.366;2022-07-29T04:13:31;28.85;;;27.77;;
33066;SDS011;19428;49.024;8.366;2022-07-29T04:15:57;28.92;;;27.83;;
33066;SDS011;19428;49.024;8.366;2022-07-29T04:18:23;28.70;;;27.60;;
33066;SDS011;19428;49.024;8.366;2022-07-29T04:20:48;27.60;;;26.60;;
33066;SDS011;19428;49.024;8.366;2022-07-29T04:23:14;24.30;;;23.40;;
33066;SDS011;19428;49.024;8.366;2022-07-29T04:25:40;28.23;;;27.00;;
33066;SDS011;19428;49.024;8.366;2022-07-29T04:28:07;29.00;;;27.90;;
33066;SDS011;19428;49.024;8.366;2022-07-29T04:30:33;27.70;;;26.70;;
33066;SDS011;19428;49.024;8.366;2022-07-29T04:33:00;28.65;;;27.55;;
33066;SDS011;19428;49.024;8.366;2022-07-29T04:35:27;32.63;;;31.40;;
33066;SDS011;19428;49.024;8.366;2022-07-29T04:37:53;31.23;;;30.02;;
33066;SDS011;19428;49.024;8.366;2022-07-29T04:40:19;31.15;;;29.98;;
33066;SDS011;19428;49.024;8.366;2022-07-29T04:42:45;31.55;;;30.35;;
33066;SDS011;19428;49.024;8.366;2022-07-29T04:45:10;34.47;;;33.17;;
33066;SDS011;19428;49.024;8.366;2022-07-29T04:47:36;31.77;;;30.58;;
33066;SDS011;19428;49.024;8.366;2022-07-29T04:50:02;32.40;;;31.02;;
33066;SDS011;19428;49.024;8.366;2022-07-29T04:52:28;30.58;;;29.42;;
33066;SDS011;19428;49.024;8.366;2022-07-29T04:54:53;25.27;;;24.38;;
33066;SDS011;19428;49.024;8.366;2022-07-29T04:57:19;23.10;;;22.27;;
33066;SDS011;19428;49.024;8.366;2022-07-29T04:59:44;24.98;;;24.08;;
33066;SDS011;19428;49.024;8.366;2022-07-29T05:02:10;23.33;;;22.45;;
33066;SDS011;19428;49.024;8.366;2022-07-29T05:04:35;19.77;;;19.08;;
33066;SDS011;19428;49.024;8.366;2022-07-29T05:07:01;22.10;;;21.33;;
33066;SDS011;19428;49.024;8.366;2022-07-29T05:09:26;21.02;;;20.20;;
33066;SDS011;19428;49.024;8.366;2022-07-29T05:11:52;18.73;;;18.10;;
33066;SDS011;19428;49.024;8.366;2022-07-29T05:14:18;16.55;;;16.00;;
33066;SDS011;19428;49.024;8.366;2022-07-29T05:16:43;16.10;;;15.55;;
33066;SDS011;19428;49.024;8.366;2022-07-29T05:19:09;14.40;;;13.75;;
33066;SDS011;19428;49.024;8.366;2022-07-29T05:21:34;9.77;;;9.48;;
33066;SDS011;19428;49.024;8.366;2022-07-29T05:24:00;6.90;;;6.70;;
33066;SDS011;19428;49.024;8.366;2022-07-29T05:26:26;5.25;;;5.15;;
33066;SDS011;19428;49.024;8.366;2022-07-29T05:28:51;4.30;;;4.15;;
33066;SDS011;19428;49.024;8.366;2022-07-29T05:31:18;4.97;;;4.88;;
33066;SDS011;19428;49.024;8.366;2022-07-29T05:33:44;3.58;;;3.47;;
33066;SDS011;19428;49.024;8.366;2022-07-29T05:36:10;2.90;;;2.90;;
33066;SDS011;19428;49.024;8.366;2022-07-29T05:38:36;2.75;;;2.75;;
33066;SDS011;19428;49.024;8.366;2022-07-29T05:41:02;2.72;;;2.72;;
33066;SDS011;19428;49.024;8.366;2022-07-29T05:43:29;2.10;;;2.10;;
33066;SDS011;19428;49.024;8.366;2022-07-29T05:45:55;2.03;;;2.03;;
33066;SDS011;19428;49.024;8.366;2022-07-29T05:48:21;1.80;;;1.80;;
33066;SDS011;19428;49.024;8.366;2022-07-29T05:50:46;1.83;;;1.83;;
33066;SDS011;19428;49.024;8.366;2022-07-29T05:53:12;2.75;;;2.65;;
33066;SDS011;19428;49.024;8.366;2022-07-29T05:55:37;1.50;;;1.50;;
33066;SDS011;19428;49.024;8.366;2022-07-29T05:58:03;2.00;;;2.00;;
33066;SDS011;19428;49.024;8.366;2022-07-29T06:00:28;3.10;;;3.00;;
33066;SDS011;19428;49.024;8.366;2022-07-29T06:02:55;1.90;;;1.90;;
33066;SDS011;19428;49.024;8.366;2022-07-29T06:05:21;1.95;;;1.95;;
33066;SDS011;19428;49.024;8.366;2022-07-29T06:07:47;1.90;;;1.90;;
33066;SDS011;19428;49.024;8.366;2022-07-29T06:10:13;1.80;;;1.80;;
33066;SDS011;19428;49.024;8.366;2022-07-29T06:12:39;2.20;;;2.20;;
33066;SDS011;19428;49.024;8.366;2022-07-29T06:15:05;2.10;;;2.10;;
33066;SDS011;19428;49.024;8.366;2022-07-29T06:17:31;1.70;;;1.70;;
33066;SDS011;19428;49.024;8.366;2022-07-29T06:19:57;1.75;;;1.75;;
33066;SDS011;19428;49.024;8.366;2022-07-29T06:22:22;2.50;;;2.50;;
33066;SDS011;19428;49.024;8.366;2022-07-29T06:24:48;1.83;;;1.83;;
33066;SDS011;19428;49.024;8.366;2022-07-29T06:27:14;1.75;;;1.75;;
33066;SDS011;19428;49.024;8.366;2022-07-29T06:29:41;2.40;;;2.40;;
33066;SDS011;19428;49.024;8.366;2022-07-29T06:32:06;2.88;;;2.78;;
33066;SDS011;19428;49.024;8.366;2022-07-29T06:34:34;2.50;;;2.50;;
33066;SDS011;19428;49.024;8.366;2022-07-29T06:37:00;2.17;;;2.17;;
33066;SDS011;19428;49.024;8.366;2022-07-29T06:39:30;2.00;;;2.00;;
33066;SDS011;19428;49.024;8.366;2022-07-29T06:41:55;1.75;;;1.75;;
33066;SDS011;19428;49.024;8.366;2022-07-29T06:44:21;1.42;;;1.42;;
33066;SDS011;19428;49.024;8.366;2022-07-29T06:46:46;1.60;;;1.60;;
33066;SDS011;19428;49.024;8.366;2022-07-29T06:49:14;1.60;;;1.60;;
33066;SDS011;19428;49.024;8.366;2022-07-29T06:51:40;1.33;;;1.33;;
33066;SDS011;19428;49.024;8.366;2022-07-29T06:54:06;1.10;;;1.10;;
33066;SDS011;19428;49.024;8.366;2022-07-29T06:56:32;1.00;;;1.00;;
33066;SDS011;19428;49.024;8.366;2022-07-29T06:59:00;1.00;;;1.00;;
33066;SDS011;19428;49.024;8.366;2022-07-29T07:01:25;1.15;;;1.15;;
33066;SDS011;19428;49.024;8.366;2022-07-29T07:03:51;1.10;;;1.10;;
33066;SDS011;19428;49.024;8.366;2022-07-29T07:06:17;1.65;;;1.65;;
33066;SDS011;19428;49.024;8.366;2022-07-29T07:08:42;1.25;;;1.25;;
33066;SDS011;19428;49.024;8.366;2022-07-29T07:11:08;1.30;;;1.30;;
33066;SDS011;19428;49.024;8.366;2022-07-29T07:13:34;1.30;;;1.30;;
33066;SDS011;19428;49.024;8.366;2022-07-29T07:16:02;1.70;;;1.70;;
33066;SDS011;19428;49.024;8.366;2022-07-29T07:18:29;1.77;;;1.77;;
33066;SDS011;19428;49.024;8.366;2022-07-29T07:20:55;3.03;;;2.83;;
33066;SDS011;19428;49.024;8.366;2022-07-29T07:23:21;1.48;;;1.48;;
33066;SDS011;19428;49.024;8.366;2022-07-29T07:25:47;1.55;;;1.55;;
33066;SDS011;19428;49.024;8.366;2022-07-29T07:28:13;1.33;;;1.33;;
33066;SDS011;19428;49.024;8.366;2022-07-29T07:30:39;3.55;;;3.25;;
33066;SDS011;19428;49.024;8.366;2022-07-29T07:33:04;1.40;;;1.40;;
33066;SDS011;19428;49.024;8.366;2022-07-29T07:35:30;1.40;;;1.40;;
33066;SDS011;19428;49.024;8.366;2022-07-29T07:37:56;1.83;;;1.83;;
33066;SDS011;19428;49.024;8.366;2022-07-29T07:40:22;1.30;;;1.30;;
33066;SDS011;19428;49.024;8.366;2022-07-29T07:42:48;2.80;;;2.55;;
33066;SDS011;19428;49.024;8.366;2022-07-29T07:45:13;1.48;;;1.48;;
33066;SDS011;19428;49.024;8.366;2022-07-29T07:47:39;1.38;;;1.38;;
33066;SDS011;19428;49.024;8.366;2022-07-29T07:50:05;2.13;;;2.03;;
33066;SDS011;19428;49.024;8.366;2022-07-29T07:52:31;1.50;;;1.50;;
33066;SDS011;19428;49.024;8.366;2022-07-29T07:54:57;2.05;;;1.95;;
33066;SDS011;19428;49.024;8.366;2022-07-29T07:57:23;1.30;;;1.30;;
33066;SDS011;19428;49.024;8.366;2022-07-29T07:59:48;1.30;;;1.30;;
33066;SDS011;19428;49.024;8.366;2022-07-29T08:02:14;1.40;;;1.40;;
33066;SDS011;19428;49.024;8.366;2022-07-29T08:04:39;1.58;;;1.58;;
33066;SDS011;19428;49.024;8.366;2022-07-29T08:07:06;1.20;;;1.20;;
33066;SDS011;19428;49.024;8.366;2022-07-29T08:09:33;1.40;;;1.40;;
33066;SDS011;19428;49.024;8.366;2022-07-29T08:11:59;1.42;;;1.42;;
33066;SDS011;19428;49.024;8.366;2022-07-29T08:14:28;1.48;;;1.48;;
33066;SDS011;19428;49.024;8.366;2022-07-29T08:16:55;1.70;;;1.70;;
33066;SDS011;19428;49.024;8.366;2022-07-29T08:19:20;1.10;;;1.10;;
33066;SDS011;19428;49.024;8.366;2022-07-29T08:21:46;1.50;;;1.50;;
33066;SDS011;19428;49.024;8.366;2022-07-29T08:24:12;1.77;;;1.67;;
33066;SDS011;19428;49.024;8.366;2022-07-29T08:26:55;1.10;;;1.10;;
33066;SDS011;19428;49.024;8.366;2022-07-29T08:29:21;2.08;;;2.05;;
33066;SDS011;19428;49.024;8.366;2022-07-29T08:31:47;1.00;;;1.00;;
33066;SDS011;19428;49.024;8.366;2022-07-29T08:34:12;1.08;;;1.08;;
33066;SDS011;19428;49.024;8.366;2022-07-29T08:36:38;1.17;;;1.17;;
33066;SDS011;19428;49.024;8.366;2022-07-29T08:39:03;1.10;;;1.10;;
33066;SDS011;19428;49.024;8.366;2022-07-29T08:41:29;1.10;;;1.10;;
33066;SDS011;19428;49.024;8.366;2022-07-29T08:43:56;1.20;;;1.20;;
33066;SDS011;19428;49.024;8.366;2022-07-29T08:46:21;1.20;;;1.20;;
33066;SDS011;19428;49.024;8.366;2022-07-29T08:48:48;1.33;;;1.33;;
33066;SDS011;19428;49.024;8.366;2022-07-29T08:51:20;1.77;;;1.67;;
33066;SDS011;19428;49.024;8.366;2022-07-29T08:53:46;1.50;;;1.50;;
33066;SDS011;19428;49.024;8.366;2022-07-29T08:56:16;1.45;;;1.45;;
33066;SDS011;19428;49.024;8.366;2022-07-29T08:58:43;1.40;;;1.40;;
33066;SDS011;19428;49.024;8.366;2022-07-29T09:01:11;1.55;;;1.55;;
33066;SDS011;19428;49.024;8.366;2022-07-29T09:03:39;1.42;;;1.42;;
33066;SDS011;19428;49.024;8.366;2022-07-29T09:06:06;1.60;;;1.60;;
33066;SDS011;19428;49.024;8.366;2022-07-29T09:08:32;1.65;;;1.65;;
33066;SDS011;19428;49.024;8.366;2022-07-29T09:11:00;1.50;;;1.50;;
33066;SDS011;19428;49.024;8.366;2022-07-29T09:13:26;1.40;;;1.40;;
33066;SDS011;19428;49.024;8.366;2022-07-29T09:15:52;1.80;;;1.80;;
33066;SDS011;19428;49.024;8.366;2022-07-29T09:21:08;1.65;;;1.65;;
33066;SDS011;19428;49.024;8.366;2022-07-29T09:24:07;1.80;;;1.80;;
33066;SDS011;19428;49.024;8.366;2022-07-29T09:26:35;1.50;;;1.50;;
33066;SDS011;19428;49.024;8.366;2022-07-29T09:29:12;1.60;;;1.60;;
33066;SDS011;19428;49.024;8.366;2022-07-29T09:31:40;2.75;;;1.90;;
33066;SDS011;19428;49.024;8.366;2022-07-29T09:34:07;1.77;;;1.77;;
33066;SDS011;19428;49.024;8.366;2022-07-29T09:39:33;7.18;;;4.82;;
33066;SDS011;19428;49.024;8.366;2022-07-29T09:42:02;12.90;;;1.92;;
33066;SDS011;19428;49.024;8.366;2022-07-29T09:44:46;1.60;;;1.60;;
33066;SDS011;19428;49.024;8.366;2022-07-29T09:47:13;1.65;;;1.63;;
33066;SDS011;19428;49.024;8.366;2022-07-29T09:49:56;1.50;;;1.50;;
33066;SDS011;19428;49.024;8.366;2022-07-29T09:52:24;1.80;;;1.80;;
33066;SDS011;19428;49.024;8.366;2022-07-29T09:54:51;1.70;;;1.70;;
33066;SDS011;19428;49.024;8.366;2022-07-29T09:57:25;2.05;;;2.05;;
33066;SDS011;19428;49.024;8.366;2022-07-29T09:59:55;1.90;;;1.90;;
33066;SDS011;19428;49.024;8.366;2022-07-29T10:02:27;3.15;;;3.15;;
33066;SDS011;19428;49.024;8.366;2022-07-29T10:04:57;3.40;;;3.38;;
33066;SDS011;19428;49.024;8.366;2022-07-29T10:07:23;2.40;;;2.40;;
33066;SDS011;19428;49.024;8.366;2022-07-29T10:09:53;2.53;;;2.53;;
33066;SDS011;19428;49.024;8.366;2022-07-29T10:12:21;2.20;;;2.20;;
33066;SDS011;19428;49.024;8.366;2022-07-29T10:14:47;2.45;;;2.45;;
33066;SDS011;19428;49.024;8.366;2022-07-29T10:17:13;1.95;;;1.95;;
33066;SDS011;19428;49.024;8.366;2022-07-29T10:19:40;1.80;;;1.80;;
33066;SDS011;19428;49.024;8.366;2022-07-29T10:22:07;3.28;;;3.03;;
33066;SDS011;19428;49.024;8.366;2022-07-29T10:24:35;1.65;;;1.65;;
33066;SDS011;19428;49.024;8.366;2022-07-29T10:27:03;1.92;;;1.92;;
33066;SDS011;19428;49.024;8.366;2022-07-29T10:29:33;1.60;;;1.60;;
33066;SDS011;19428;49.024;8.366;2022-07-29T10:43:14;1.50;;;1.50;;
33066;SDS011;19428;49.024;8.366;2022-07-29T10:45:45;1.80;;;1.75;;
33066;SDS011;19428;49.024;8.366;2022-07-29T10:48:12;1.98;;;1.98;;
33066;SDS011;19428;49.024;8.366;2022-07-29T10:50:55;1.50;;;1.50;;
33066;SDS011;19428;49.024;8.366;2022-07-29T10:53:24;1.40;;;1.40;;
33066;SDS011;19428;49.024;8.366;2022-07-29T10:55:50;2.13;;;2.13;;
33066;SDS011;19428;49.024;8.366;2022-07-29T10:58:18;1.67;;;1.67;;
33066;SDS011;19428;49.024;8.366;2022-07-29T11:00:52;1.67;;;1.67;;
33066;SDS011;19428;49.024;8.366;2022-07-29T11:06:11;1.67;;;1.67;;
33066;SDS011;19428;49.024;8.366;2022-07-29T11:08:36;1.70;;;1.70;;
33066;SDS011;19428;49.024;8.366;2022-07-29T11:13:50;1.63;;;1.63;;
33066;SDS011;19428;49.024;8.366;2022-07-29T11:16:18;5.13;;;2.75;;
33066;SDS011;19428;49.024;8.366;2022-07-29T11:21:35;1.50;;;1.50;;
33066;SDS011;19428;49.024;8.366;2022-07-29T11:27:10;1.45;;;1.45;;
33066;SDS011;19428;49.024;8.366;2022-07-29T11:29:38;1.20;;;1.20;;
33066;SDS011;19428;49.024;8.366;2022-07-29T11:32:12;1.20;;;1.20;;
33066;SDS011;19428;49.024;8.366;2022-07-29T11:34:44;1.27;;;1.27;;
33066;SDS011;19428;49.024;8.366;2022-07-29T11:47:30;1.30;;;1.30;;
33066;SDS011;19428;49.024;8.366;2022-07-29T11:49:58;1.20;;;1.20;;
33066;SDS011;19428;49.024;8.366;2022-07-29T11:52:44;1.50;;;1.50;;
33066;SDS011;19428;49.024;8.366;2022-07-29T11:55:19;1.67;;;1.67;;
33066;SDS011;19428;49.024;8.366;2022-07-29T12:00:31;3.97;;;1.13;;
33066;SDS011;19428;49.024;8.366;2022-07-29T12:03:04;0.93;;;0.93;;
33066;SDS011;19428;49.024;8.366;2022-07-29T12:05:32;0.80;;;0.80;;
33066;SDS011;19428;49.024;8.366;2022-07-29T12:08:21;1.00;;;1.00;;
33066;SDS011;19428;49.024;8.366;2022-07-29T12:10:48;1.10;;;1.10;;
33066;SDS011;19428;49.024;8.366;2022-07-29T12:13:16;1.00;;;1.00;;
33066;SDS011;19428;49.024;8.366;2022-07-29T12:15:51;1.20;;;1.20;;
33066;SDS011;19428;49.024;8.366;2022-07-29T12:18:18;1.65;;;1.55;;
33066;SDS011;19428;49.024;8.366;2022-07-29T12:20:45;1.00;;;1.00;;
33066;SDS011;19428;49.024;8.366;2022-07-29T12:23:11;1.00;;;1.00;;
33066;SDS011;19428;49.024;8.366;2022-07-29T12:25:37;1.00;;;1.00;;
33066;SDS011;19428;49.024;8.366;2022-07-29T12:28:04;1.20;;;1.10;;
33066;SDS011;19428;49.024;8.366;2022-07-29T12:30:38;0.80;;;0.80;;
33066;SDS011;19428;49.024;8.366;2022-07-29T12:33:10;1.00;;;1.00;;
33066;SDS011;19428;49.024;8.366;2022-07-29T12:35:39;0.90;;;0.90;;
33066;SDS011;19428;49.024;8.366;2022-07-29T12:38:05;1.13;;;1.13;;
33066;SDS011;19428;49.024;8.366;2022-07-29T12:40:31;1.00;;;1.00;;
33066;SDS011;19428;49.024;8.366;2022-07-29T12:45:38;1.00;;;1.00;;
33066;SDS011;19428;49.024;8.366;2022-07-29T12:48:05;0.90;;;0.90;;
33066;SDS011;19428;49.024;8.366;2022-07-29T12:50:56;0.77;;;0.77;;
33066;SDS011;19428;49.024;8.366;2022-07-29T12:53:22;0.85;;;0.85;;
33066;SDS011;19428;49.024;8.366;2022-07-29T12:55:49;0.70;;;0.70;;
33066;SDS011;19428;49.024;8.366;2022-07-29T13:03:48;0.80;;;0.80;;
33066;SDS011;19428;49.024;8.366;2022-07-29T13:06:29;0.90;;;0.90;;
33066;SDS011;19428;49.024;8.366;2022-07-29T13:09:03;1.77;;;1.67;;
33066;SDS011;19428;49.024;8.366;2022-07-29T13:14:06;2.53;;;2.42;;
33066;SDS011;19428;49.024;8.366;2022-07-29T13:16:33;1.60;;;1.60;;
33066;SDS011;19428;49.024;8.366;2022-07-29T13:19:10;1.60;;;1.60;;
33066;SDS011;19428;49.024;8.366;2022-07-29T13:21:37;1.55;;;1.55;;
33066;SDS011;19428;49.024;8.366;2022-07-29T13:24:04;1.13;;;1.13;;
33066;SDS011;19428;49.024;8.366;2022-07-29T13:26:31;1.33;;;1.33;;
33066;SDS011;19428;49.024;8.366;2022-07-29T13:28:57;1.10;;;1.10;;
33066;SDS011;19428;49.024;8.366;2022-07-29T13:31:22;1.45;;;1.45;;
33066;SDS011;19428;49.024;8.366;2022-07-29T13:33:48;1.00;;;1.00;;
33066;SDS011;19428;49.024;8.366;2022-07-29T13:36:14;1.10;;;1.10;;
33066;SDS011;19428;49.024;8.366;2022-07-29T13:38:39;1.17;;;1.17;;
33066;SDS011;19428;49.024;8.366;2022-07-29T13:41:05;1.00;;;1.00;;
33066;SDS011;19428;49.024;8.366;2022-07-29T13:43:31;13.82;;;3.35;;
33066;SDS011;19428;49.024;8.366;2022-07-29T13:45:56;0.90;;;0.90;;
33066;SDS011;19428;49.024;8.366;2022-07-29T13:48:22;1.00;;;1.00;;
33066;SDS011;19428;49.024;8.366;2022-07-29T13:50:47;0.80;;;0.80;;
33066;SDS011;19428;49.024;8.366;2022-07-29T13:53:13;0.68;;;0.68;;
33066;SDS011;19428;49.024;8.366;2022-07-29T13:55:40;0.60;;;0.60;;
33066;SDS011;19428;49.024;8.366;2022-07-29T13:58:05;1.00;;;1.00;;
33066;SDS011;19428;49.024;8.366;2022-07-29T14:00:31;0.60;;;0.60;;
33066;SDS011;19428;49.024;8.366;2022-07-29T14:02:56;0.60;;;0.60;;
33066;SDS011;19428;49.024;8.366;2022-07-29T14:05:22;0.50;;;0.50;;
33066;SDS011;19428;49.024;8.366;2022-07-29T14:07:47;0.50;;;0.50;;
33066;SDS011;19428;49.024;8.366;2022-07-29T14:10:13;0.50;;;0.50;;
33066;SDS011;19428;49.024;8.366;2022-07-29T14:12:39;0.50;;;0.50;;
33066;SDS011;19428;49.024;8.366;2022-07-29T14:15:06;0.85;;;0.85;;
33066;SDS011;19428;49.024;8.366;2022-07-29T14:17:33;0.70;;;0.70;;
33066;SDS011;19428;49.024;8.366;2022-07-29T14:19:59;0.50;;;0.50;;
33066;SDS011;19428;49.024;8.366;2022-07-29T14:22:25;0.60;;;0.60;;
33066;SDS011;19428;49.024;8.366;2022-07-29T14:24:51;0.57;;;0.57;;
33066;SDS011;19428;49.024;8.366;2022-07-29T14:27:17;0.50;;;0.50;;
33066;SDS011;19428;49.024;8.366;2022-07-29T14:29:43;0.50;;;0.50;;
33066;SDS011;19428;49.024;8.366;2022-07-29T14:32:09;0.40;;;0.40;;
33066;SDS011;19428;49.024;8.366;2022-07-29T14:34:35;0.50;;;0.50;;
33066;SDS011;19428;49.024;8.366;2022-07-29T14:37:01;0.40;;;0.40;;
33066;SDS011;19428;49.024;8.366;2022-07-29T14:39:27;0.50;;;0.50;;
33066;SDS011;19428;49.024;8.366;2022-07-29T14:41:54;0.50;;;0.50;;
33066;SDS011;19428;49.024;8.366;2022-07-29T14:44:19;0.75;;;0.75;;
33066;SDS011;19428;49.024;8.366;2022-07-29T14:46:45;0.52;;;0.52;;
33066;SDS011;19428;49.024;8.366;2022-07-29T14:49:10;0.50;;;0.50;;
33066;SDS011;19428;49.024;8.366;2022-07-29T14:51:36;0.60;;;0.60;;
33066;SDS011;19428;49.024;8.366;2022-07-29T14:54:02;0.50;;;0.50;;
33066;SDS011;19428;49.024;8.366;2022-07-29T14:56:27;0.50;;;0.50;;
33066;SDS011;19428;49.024;8.366;2022-07-29T14:58:55;0.50;;;0.50;;
33066;SDS011;19428;49.024;8.366;2022-07-29T15:01:22;0.50;;;0.50;;
33066;SDS011;19428;49.024;8.366;2022-07-29T15:03:48;0.70;;;0.70;;
33066;SDS011;19428;49.024;8.366;2022-07-29T15:06:13;0.50;;;0.50;;
33066;SDS011;19428;49.024;8.366;2022-07-29T15:08:39;0.60;;;0.60;;
33066;SDS011;19428;49.024;8.366;2022-07-29T15:11:05;0.70;;;0.70;;
33066;SDS011;19428;49.024;8.366;2022-07-29T15:13:30;0.70;;;0.70;;
33066;SDS011;19428;49.024;8.366;2022-07-29T15:15:56;1.13;;;1.13;;
33066;SDS011;19428;49.024;8.366;2022-07-29T15:18:21;0.63;;;0.63;;
33066;SDS011;19428;49.024;8.366;2022-07-29T15:20:47;0.60;;;0.60;;
33066;SDS011;19428;49.024;8.366;2022-07-29T15:23:12;0.80;;;0.80;;
33066;SDS011;19428;49.024;8.366;2022-07-29T15:25:38;0.63;;;0.63;;
33066;SDS011;19428;49.024;8.366;2022-07-29T15:28:04;1.00;;;1.00;;
33066;SDS011;19428;49.024;8.366;2022-07-29T15:30:32;0.88;;;0.88;;
33066;SDS011;19428;49.024;8.366;2022-07-29T15:32:59;8.80;;;2.00;;
33066;SDS011;19428;49.024;8.366;2022-07-29T15:35:28;3.50;;;1.92;;
33066;SDS011;19428;49.024;8.366;2022-07-29T15:37:53;1.10;;;1.10;;
33066;SDS011;19428;49.024;8.366;2022-07-29T15:40:19;1.48;;;1.38;;
33066;SDS011;19428;49.024;8.366;2022-07-29T15:42:45;0.90;;;0.90;;
33066;SDS011;19428;49.024;8.366;2022-07-29T15:45:10;0.90;;;0.90;;
33066;SDS011;19428;49.024;8.366;2022-07-29T15:47:36;0.80;;;0.80;;